Time;durP1;ratioP1;P1;durP2;ratioP2;P2;SDS_P1;SDS_P2;PMS_P1;PMS_P2;Temp;Humidity;BMP_temperature;BMP_pressure;BME280_temperature;BME280_humidity;BME280_pressure;Samples;Min_cycle;Max_cycle;Signal;HPM_P1;HPM_P2
2022/11/10 00:01:50;;;;;;;13.23;4.93;;;;;;;6.72;100.00;101024.69;4814555;29;20041;-76
2022/11/10 00:04:16;;;;;;;11.13;5.15;;;;;;;6.68;100.00;101029.06;4845910;29;20079;-76
2022/11/10 00:06:43;;;;;;;11.48;5.07;;;;;;;6.70;100.00;101028.81;4845835;29;20125;-76
2022/11/10 00:09:09;;;;;;;11.88;4.95;;;;;;;6.69;100.00;101025.22;4819473;29;20456;-77
2022/11/10 00:11:34;;;;;;;10.48;4.63;;;;;;;6.67;100.00;101032.91;4788223;29;20040;-76
2022/11/10 00:16:59;;;;;;;11.15;5.05;;;;;;;6.63;100.00;101033.66;4845697;29;20073;-76
2022/11/10 00:19:26;;;;;;;10.45;4.68;;;;;;;6.65;100.00;101031.50;4819838;29;20033;-76
2022/11/10 00:21:51;;;;;;;12.68;5.40;;;;;;;6.63;100.00;101039.19;4829476;29;20112;-76
2022/11/10 00:24:17;;;;;;;9.50;4.45;;;;;;;6.72;100.00;101040.44;4799398;29;20037;-76
2022/11/10 00:26:42;;;;;;;10.50;4.68;;;;;;;6.65;100.00;101037.84;4829435;29;20038;-76
2022/11/10 00:29:08;;;;;;;10.88;4.32;;;;;;;6.63;100.00;101041.94;4798929;29;20029;-76
2022/11/10 00:31:35;;;;;;;10.60;4.18;;;;;;;6.62;100.00;101043.03;4845829;29;20042;-76
2022/11/10 00:34:01;;;;;;;11.52;4.18;;;;;;;6.59;100.00;101036.13;4815034;29;20044;-76
2022/11/10 00:36:26;;;;;;;7.35;3.90;;;;;;;6.60;100.00;101045.22;4818190;29;20129;-76
2022/11/10 00:38:52;;;;;;;13.63;4.63;;;;;;;6.58;100.00;101039.16;4844121;29;20502;-77
2022/11/10 00:41:18;;;;;;;11.23;4.00;;;;;;;6.55;100.00;101036.91;4828989;29;20562;-76
2022/11/10 00:43:43;;;;;;;10.27;4.05;;;;;;;6.52;100.00;101045.66;4843428;29;20030;-77
2022/11/10 00:46:08;;;;;;;8.65;3.50;;;;;;;6.57;100.00;101045.72;4821343;29;20551;-76
2022/11/10 00:48:34;;;;;;;9.68;3.70;;;;;;;6.55;100.00;101046.00;4828791;29;20046;-76
2022/11/10 00:50:59;;;;;;;8.25;3.80;;;;;;;6.55;100.00;101048.75;4829892;29;20053;-76
2022/11/10 00:53:25;;;;;;;9.52;3.72;;;;;;;6.57;100.00;101052.09;4855997;29;20034;-76
2022/11/10 00:55:50;;;;;;;9.43;3.75;;;;;;;6.54;100.00;101058.13;4844053;29;20046;-77
2022/11/10 00:58:16;;;;;;;11.07;3.88;;;;;;;6.55;100.00;101061.72;4828993;29;20116;-76
2022/11/10 01:00:42;;;;;;;11.43;4.05;;;;;;;6.51;100.00;101061.38;4813190;29;20034;-76
2022/11/10 01:03:14;;;;;;;7.38;3.63;;;;;;;6.56;100.00;101066.16;4828679;29;20063;-76
2022/11/10 01:05:39;;;;;;;8.13;3.72;;;;;;;6.56;100.00;101074.44;4828455;29;20046;-76
2022/11/10 01:08:05;;;;;;;9.27;3.60;;;;;;;6.54;100.00;101071.91;4828692;29;20064;-76
2022/11/10 01:10:30;;;;;;;9.25;3.65;;;;;;;6.52;100.00;101071.34;4828723;29;20050;-76
2022/11/10 01:12:56;;;;;;;8.32;3.92;;;;;;;6.51;100.00;101071.59;4798368;29;20064;-77
2022/11/10 01:15:21;;;;;;;8.57;3.45;;;;;;;6.52;100.00;101067.72;4828226;29;20042;-76
2022/11/10 01:17:47;;;;;;;12.90;4.43;;;;;;;6.47;100.00;101074.84;4812566;29;20087;-76
2022/11/10 01:20:13;;;;;;;9.38;4.13;;;;;;;6.51;100.00;101071.59;4839449;29;20034;-76
2022/11/10 01:22:39;;;;;;;9.30;3.70;;;;;;;6.51;100.00;101066.91;4835227;29;20435;-77
2022/11/10 01:25:05;;;;;;;10.23;3.60;;;;;;;6.52;100.00;101063.06;4818275;29;20486;-77
2022/11/10 01:27:31;;;;;;;10.38;3.72;;;;;;;6.49;100.00;101058.91;4813473;29;20594;-76
2022/11/10 01:29:56;;;;;;;5.88;3.13;;;;;;;6.48;100.00;101078.44;4843451;29;20061;-77
2022/11/10 01:32:22;;;;;;;7.47;3.53;;;;;;;6.49;100.00;101077.34;4843700;29;20038;-76
2022/11/10 01:34:47;;;;;;;8.75;3.50;;;;;;;6.47;100.00;101074.03;4827989;29;20049;-76
2022/11/10 01:37:13;;;;;;;8.32;3.65;;;;;;;6.47;100.00;101077.63;4828318;29;20114;-76
2022/11/10 01:39:38;;;;;;;9.52;3.47;;;;;;;6.47;100.00;101072.09;4813291;29;20065;-77
2022/11/10 01:42:04;;;;;;;6.93;3.40;;;;;;;6.42;100.00;101073.94;4813073;29;20026;-77
2022/11/10 01:44:29;;;;;;;8.68;3.63;;;;;;;6.44;100.00;101071.78;4796051;29;20058;-76
2022/11/10 01:46:54;;;;;;;10.48;3.35;;;;;;;6.45;100.00;101073.44;4828337;29;20046;-76
2022/11/10 01:49:22;;;;;;;10.68;3.47;;;;;;;6.42;100.00;101079.47;4827918;29;20079;-76
2022/11/10 01:51:55;;;;;;;11.23;3.60;;;;;;;6.44;100.00;101088.34;4828272;29;20030;-76
2022/11/10 01:54:29;;;;;;;7.85;3.47;;;;;;;6.43;100.00;101081.94;4827992;29;20042;-76
2022/11/10 01:56:58;;;;;;;8.63;3.22;;;;;;;6.44;100.00;101080.88;4828453;29;20041;-76
2022/11/10 01:59:26;;;;;;;11.75;3.67;;;;;;;6.42;100.00;101084.97;4816323;29;20117;-76
2022/11/10 02:01:52;;;;;;;7.18;3.22;;;;;;;6.41;100.00;101084.16;4832187;29;20044;-76
2022/11/10 02:04:18;;;;;;;10.27;3.35;;;;;;;6.40;100.00;101081.63;4816491;29;20113;-76
2022/11/10 02:06:44;;;;;;;6.88;3.15;;;;;;;6.41;100.00;101086.91;4816551;29;20503;-76
2022/11/10 02:09:10;;;;;;;9.38;3.58;;;;;;;6.42;100.00;101091.34;4827310;29;20041;-76
2022/11/10 02:11:36;;;;;;;9.05;3.28;;;;;;;6.35;100.00;101101.72;4839582;29;20061;-76
2022/11/10 02:14:01;;;;;;;8.88;3.28;;;;;;;6.43;100.00;101100.44;4831052;29;20052;-76
2022/11/10 02:16:27;;;;;;;8.70;3.70;;;;;;;6.41;100.00;101097.94;4831409;29;20034;-76
2022/11/10 02:18:53;;;;;;;15.07;3.50;;;;;;;6.39;100.00;101097.34;4789082;29;20034;-76
2022/11/10 02:21:19;;;;;;;8.77;2.90;;;;;;;6.40;100.00;101098.19;4831472;29;20045;-76
2022/11/10 02:23:52;;;;;;;11.68;3.58;;;;;;;6.40;100.00;101104.53;4831225;29;20030;-76
2022/11/10 02:26:25;;;;;;;12.40;3.38;;;;;;;6.39;100.00;101102.88;4847131;29;20086;-76
2022/11/10 02:28:50;;;;;;;;;;;;;;;6.39;100.00;101108.41;4832505;29;20038;-76
2022/11/10 02:31:15;;;;;;;9.05;3.33;;;;;;;6.38;100.00;101105.88;4847242;29;20008;-76
2022/11/10 02:33:41;;;;;;;7.75;3.15;;;;;;;6.38;100.00;101116.91;4800844;29;20381;-76
2022/11/10 02:36:07;;;;;;;7.60;3.45;;;;;;;6.35;100.00;101112.75;4822245;29;20514;-76
2022/11/10 02:38:32;;;;;;;9.57;3.63;;;;;;;6.36;100.00;101105.31;4847346;29;20045;-76
2022/11/10 02:40:58;;;;;;;8.52;3.05;;;;;;;6.35;100.00;101093.44;4847406;29;20093;-76
2022/11/10 02:43:23;;;;;;;7.95;3.10;;;;;;;6.35;100.00;101106.38;4830898;29;20045;-76
2022/11/10 02:45:49;;;;;;;7.00;3.17;;;;;;;6.33;100.00;101097.53;4805800;29;20075;-76
2022/11/10 02:48:14;;;;;;;9.48;3.10;;;;;;;6.33;100.00;101098.38;4845411;29;20026;-76
2022/11/10 02:50:40;;;;;;;8.02;3.17;;;;;;;6.31;100.00;101095.00;4815575;29;20049;-76
2022/11/10 02:53:05;;;;;;;10.93;3.20;;;;;;;6.31;100.00;101095.00;4830711;29;20063;-77
2022/11/10 02:55:31;;;;;;;7.68;3.17;;;;;;;6.28;100.00;101090.00;4800802;29;20042;-77
2022/11/10 02:57:57;;;;;;;8.27;2.97;;;;;;;6.30;100.00;101087.84;4818352;29;20041;-76
2022/11/10 03:00:22;;;;;;;8.05;3.03;;;;;;;6.30;100.00;101095.28;4830416;29;20539;-76
2022/11/10 03:02:48;;;;;;;7.03;3.08;;;;;;;6.27;100.00;101096.63;4830631;29;20045;-76
2022/11/10 03:05:14;;;;;;;10.15;3.55;;;;;;;6.30;100.00;101098.88;4830509;29;20026;-76
2022/11/10 03:07:39;;;;;;;6.97;3.60;;;;;;;6.28;100.00;101094.69;4815490;29;20570;-76
2022/11/10 03:10:05;;;;;;;11.70;3.45;;;;;;;6.29;100.00;101090.84;4814702;29;20044;-76
2022/11/10 03:12:31;;;;;;;8.50;3.80;;;;;;;6.25;100.00;101098.78;4830020;29;20042;-76
2022/11/10 03:14:56;;;;;;;6.78;3.55;;;;;;;6.25;100.00;101096.03;4846569;29;20041;-76
2022/11/10 03:17:22;;;;;;;8.27;3.00;;;;;;;6.26;100.00;101097.69;4824023;29;20035;-77
2022/11/10 03:19:48;;;;;;;7.30;2.70;;;;;;;6.27;100.00;101104.91;4830293;29;20514;-76
2022/11/10 03:22:13;;;;;;;7.53;3.28;;;;;;;6.25;100.00;101098.78;4818728;29;20078;-77
2022/11/10 03:24:39;;;;;;;11.30;3.33;;;;;;;6.27;100.00;101099.38;4823633;29;20391;-78
2022/11/10 03:27:04;;;;;;;9.13;4.95;;;;;;;6.23;100.00;101101.78;4845900;29;20399;-77
2022/11/10 03:29:30;;;;;;;9.02;4.18;;;;;;;6.29;100.00;101110.16;4784887;29;20022;-77
2022/11/10 03:31:56;;;;;;;12.25;4.00;;;;;;;6.24;100.00;101105.38;4800673;29;20034;-77
2022/11/10 03:34:21;;;;;;;10.10;3.92;;;;;;;6.25;100.00;101115.34;4832569;29;20101;-76
2022/11/10 03:36:46;;;;;;;10.68;4.28;;;;;;;6.27;100.00;101113.19;4820990;29;20034;-76
2022/11/10 03:39:12;;;;;;;11.75;4.28;;;;;;;6.28;100.00;101117.59;4799885;29;20038;-76
2022/11/10 03:41:37;;;;;;;7.40;3.55;;;;;;;6.26;100.00;101111.47;4829961;29;20759;-76
2022/11/10 03:44:03;;;;;;;10.38;4.63;;;;;;;6.25;100.00;101112.56;4844883;29;20026;-76
2022/11/10 03:46:29;;;;;;;7.88;4.10;;;;;;;6.26;100.00;101109.56;4814730;29;20090;-76
2022/11/10 03:48:54;;;;;;;7.05;3.63;;;;;;;6.25;100.00;101107.06;4803186;29;20030;-77
2022/11/10 03:51:20;;;;;;;6.13;3.33;;;;;;;6.29;100.00;101107.38;4813101;29;20057;-76
2022/11/10 03:53:46;;;;;;;7.97;3.78;;;;;;;6.26;100.00;101112.31;4815179;29;20034;-76
2022/11/10 03:56:11;;;;;;;8.55;3.78;;;;;;;6.26;100.00;101126.09;4799594;29;20118;-76
2022/11/10 03:58:37;;;;;;;9.30;4.05;;;;;;;6.26;100.00;101126.09;4829951;29;20034;-76
2022/11/10 04:01:02;;;;;;;8.82;3.78;;;;;;;6.25;100.00;101121.69;4829421;29;20045;-76
2022/11/10 04:03:28;;;;;;;7.90;3.70;;;;;;;6.26;100.00;101131.63;4829657;29;20038;-76
2022/11/10 04:16:50;;;;;;;9.30;3.42;;;;;;;6.25;100.00;101145.69;4831960;29;20122;-76
2022/11/10 04:19:15;;;;;;;6.72;3.35;;;;;;;6.23;100.00;101142.31;4833390;29;20041;-76
2022/11/10 04:21:40;;;;;;;8.23;3.33;;;;;;;6.25;100.00;101146.50;4829097;29;20068;-76
2022/11/10 04:24:07;;;;;;;10.55;3.75;;;;;;;6.19;100.00;101144.75;4829128;29;20030;-76
2022/11/10 04:26:36;;;;;;;6.00;3.53;;;;;;;6.22;100.00;101146.19;4845063;29;20041;-76
2022/11/10 04:29:03;;;;;;;5.93;3.10;;;;;;;6.21;100.00;101145.34;4788048;29;20030;-76
2022/11/10 04:31:29;;;;;;;7.40;3.05;;;;;;;6.20;100.00;101143.66;4813913;29;20060;-76
2022/11/10 04:33:55;;;;;;;8.02;3.55;;;;;;;6.22;100.00;101152.53;4829645;29;20050;-76
2022/11/10 04:36:22;;;;;;;6.50;3.22;;;;;;;6.20;100.00;101162.13;4850760;29;20428;-76
2022/11/10 04:38:47;;;;;;;8.23;3.30;;;;;;;6.17;100.00;101155.19;4814093;29;20038;-76
2022/11/10 04:41:13;;;;;;;7.63;2.90;;;;;;;6.20;100.00;101162.13;4828938;29;20033;-76
2022/11/10 04:43:38;;;;;;;8.18;3.30;;;;;;;6.17;100.00;101166.22;4813741;29;20123;-76
2022/11/10 04:46:05;;;;;;;5.00;2.72;;;;;;;6.18;100.00;101161.53;4813521;29;20045;-76
2022/11/10 04:48:30;;;;;;;9.60;3.20;;;;;;;6.17;100.00;101170.91;4828792;29;20065;-76
2022/11/10 04:50:56;;;;;;;10.50;3.97;;;;;;;6.17;100.00;101168.97;4813456;29;20046;-76
2022/11/10 04:53:21;;;;;;;11.00;3.63;;;;;;;6.15;100.00;101171.16;4828842;29;20042;-76
2022/11/10 04:55:47;;;;;;;7.05;3.20;;;;;;;6.16;100.00;101174.78;4828718;29;20705;-76
2022/11/10 04:58:12;;;;;;;9.18;3.85;;;;;;;6.18;100.00;101178.09;4828910;29;20063;-76
2022/11/10 05:00:38;;;;;;;9.65;3.65;;;;;;;6.17;100.00;101170.91;4829555;29;20037;-76
2022/11/10 05:03:05;;;;;;;9.18;4.18;;;;;;;6.16;100.00;101174.78;4809795;29;20108;-76
2022/11/10 05:05:30;;;;;;;9.48;4.20;;;;;;;6.19;100.00;101179.78;4828676;29;20058;-76
2022/11/10 05:07:56;;;;;;;9.02;4.18;;;;;;;6.18;100.00;101172.56;4795608;29;20065;-76
2022/11/10 05:10:21;;;;;;;7.32;3.92;;;;;;;6.17;100.00;101173.66;4808703;29;20034;-76
2022/11/10 05:12:47;;;;;;;9.52;3.92;;;;;;;6.20;100.00;101175.94;4813319;29;20064;-76
2022/11/10 05:15:12;;;;;;;9.48;3.92;;;;;;;6.18;100.00;101170.66;4828472;29;20045;-76
2022/11/10 05:17:38;;;;;;;7.72;4.32;;;;;;;6.19;100.00;101171.50;4807975;29;20038;-76
2022/11/10 05:20:05;;;;;;;7.70;4.45;;;;;;;6.20;100.00;101178.69;4803642;29;20392;-76
2022/11/10 05:22:30;;;;;;;8.30;4.40;;;;;;;6.20;100.00;101176.75;4844738;29;20040;-76
2022/11/10 05:24:55;;;;;;;9.38;4.35;;;;;;;6.17;100.00;101171.75;4843252;29;20026;-76
2022/11/10 05:27:21;;;;;;;9.63;4.10;;;;;;;6.21;100.00;101177.59;4801203;29;20034;-76
2022/11/10 05:29:46;;;;;;;10.57;5.03;;;;;;;6.20;100.00;101178.69;4813092;29;20033;-76
2022/11/10 05:32:12;;;;;;;9.30;4.82;;;;;;;6.18;100.00;101183.59;4827819;29;20038;-76
2022/11/10 05:34:38;;;;;;;8.98;4.45;;;;;;;6.18;100.00;101186.38;4834036;29;20060;-76
2022/11/10 05:37:03;;;;;;;12.85;5.20;;;;;;;6.18;100.00;101184.44;4828226;29;20062;-76
2022/11/10 05:39:28;;;;;;;10.02;4.88;;;;;;;6.17;100.00;101182.78;4828390;29;20452;-77
2022/11/10 05:41:54;;;;;;;9.13;5.03;;;;;;;6.19;100.00;101185.28;4798047;29;20030;-76
2022/11/10 05:44:19;;;;;;;9.75;5.45;;;;;;;6.16;100.00;101186.63;4806379;29;20052;-76
2022/11/10 05:46:45;;;;;;;13.10;7.00;;;;;;;6.19;100.00;101190.81;4813124;29;20516;-76
2022/11/10 05:49:10;;;;;;;11.43;5.90;;;;;;;6.21;100.00;101192.25;4828017;29;20079;-76
2022/11/10 05:51:36;;;;;;;9.85;6.15;;;;;;;6.18;100.00;101195.47;4828598;29;20045;-77
2022/11/10 05:54:01;;;;;;;12.68;6.78;;;;;;;6.19;100.00;101194.41;4827937;29;20041;-76
2022/11/10 05:56:27;;;;;;;13.55;7.20;;;;;;;6.20;100.00;101196.06;4813110;29;20037;-76
2022/11/10 05:58:52;;;;;;;10.50;6.82;;;;;;;6.24;100.00;101200.03;4844312;29;20095;-76
2022/11/10 06:01:17;;;;;;;11.15;6.72;;;;;;;6.22;100.00;101201.34;4813041;29;20566;-76
2022/11/10 06:03:43;;;;;;;10.80;6.57;;;;;;;6.24;100.00;101199.16;4828080;29;20034;-76
2022/11/10 06:06:08;;;;;;;12.75;7.78;;;;;;;6.23;100.00;101197.50;4813198;29;20037;-76
2022/11/10 06:08:34;;;;;;;13.70;6.68;;;;;;;6.25;100.00;101198.09;4827905;29;20540;-76
2022/11/10 06:10:59;;;;;;;11.30;7.25;;;;;;;6.28;100.00;101199.53;4844342;29;20503;-76
2022/11/10 06:13:25;;;;;;;12.98;7.18;;;;;;;6.28;100.00;101194.84;4812844;29;20037;-76
2022/11/10 06:15:50;;;;;;;13.32;6.75;;;;;;;6.28;100.00;101188.47;4827495;29;20042;-76
2022/11/10 06:18:16;;;;;;;15.48;8.25;;;;;;;6.31;100.00;101190.75;4833777;29;20038;-76
2022/11/10 06:20:42;;;;;;;12.93;7.40;;;;;;;6.26;100.00;101195.06;4810983;29;20067;-74
2022/11/10 06:23:11;;;;;;;12.77;7.15;;;;;;;6.27;100.00;101193.16;4827867;29;20030;-77
2022/11/10 06:25:38;;;;;;;12.52;8.07;;;;;;;6.25;100.00;101195.34;4813296;29;20033;-77
2022/11/10 06:28:04;;;;;;;11.52;7.10;;;;;;;6.29;100.00;101192.91;4797940;29;20487;-77
2022/11/10 06:30:31;;;;;;;14.15;7.97;;;;;;;6.24;100.00;101191.75;4812455;29;20056;-76
2022/11/10 06:32:56;;;;;;;13.98;7.35;;;;;;;6.28;100.00;101192.06;4812941;29;20100;-77
2022/11/10 06:35:24;;;;;;;12.98;7.57;;;;;;;6.23;100.00;101203.00;4833723;29;20076;-77
2022/11/10 06:38:05;;;;;;;13.55;7.32;;;;;;;6.24;100.00;101205.53;4782849;29;20048;-77
2022/11/10 06:40:30;;;;;;;12.52;6.82;;;;;;;6.24;100.00;101219.31;4832281;29;20174;-76
2022/11/10 06:42:56;;;;;;;13.15;6.88;;;;;;;6.25;100.00;101228.44;4797603;29;20089;-77
2022/11/10 06:45:22;;;;;;;11.60;6.70;;;;;;;6.22;100.00;101221.50;4800223;29;20038;-76
2022/11/10 06:47:47;;;;;;;14.23;7.10;;;;;;;6.22;100.00;101224.25;4815965;29;20065;-76
2022/11/10 06:50:13;;;;;;;15.68;7.38;;;;;;;6.19;100.00;101219.22;4830817;29;20110;-76
2022/11/10 06:52:38;;;;;;;11.32;6.97;;;;;;;6.20;100.00;101220.88;4830967;29;20030;-76
2022/11/10 06:55:04;;;;;;;12.35;6.50;;;;;;;6.24;100.00;101226.75;4847446;29;20090;-76
2022/11/10 06:57:36;;;;;;;14.00;7.18;;;;;;;6.20;100.00;101228.34;4826857;29;20061;-76
2022/11/10 07:00:02;;;;;;;15.23;6.95;;;;;;;6.22;100.00;101229.75;4830526;29;20034;-76
2022/11/10 07:02:28;;;;;;;10.65;6.88;;;;;;;6.24;100.00;101243.28;4830647;29;20100;-76
2022/11/10 07:04:53;;;;;;;10.43;6.30;;;;;;;6.22;100.00;101239.97;4800760;29;20030;-77
2022/11/10 07:07:19;;;;;;;16.77;7.68;;;;;;;6.24;100.00;101237.78;4847016;29;20686;-77
2022/11/10 07:09:44;;;;;;;11.95;6.57;;;;;;;6.23;100.00;101234.19;4821935;29;20026;-76
2022/11/10 07:12:10;;;;;;;11.20;6.20;;;;;;;6.24;100.00;101235.00;4846763;29;20038;-77
2022/11/10 07:14:35;;;;;;;12.57;6.22;;;;;;;6.25;100.00;101234.78;4846477;29;20045;-76
2022/11/10 07:17:01;;;;;;;15.30;6.90;;;;;;;6.24;100.00;101243.28;4829388;29;20046;-77
2022/11/10 07:19:26;;;;;;;11.95;6.50;;;;;;;6.23;100.00;101241.63;4835496;29;20038;-77
2022/11/10 07:21:52;;;;;;;14.25;6.55;;;;;;;6.26;100.00;101252.16;4830095;29;20457;-76
2022/11/10 07:24:17;;;;;;;12.48;6.60;;;;;;;6.22;100.00;101251.00;4815702;29;20026;-77
2022/11/10 07:26:43;;;;;;;10.98;6.82;;;;;;;6.25;100.00;101256.84;4815582;29;20034;-77
2022/11/10 07:29:08;;;;;;;12.68;6.43;;;;;;;6.26;100.00;101257.69;4830195;29;20034;-77
2022/11/10 07:31:33;;;;;;;11.63;5.68;;;;;;;6.25;100.00;101256.84;4815148;29;20492;-77
2022/11/10 07:33:59;;;;;;;12.80;5.95;;;;;;;6.27;100.00;101262.13;4815000;29;20042;-77
2022/11/10 07:36:27;;;;;;;13.02;6.32;;;;;;;6.28;100.00;101263.78;4819678;29;20041;-77
2022/11/10 07:38:53;;;;;;;13.88;6.45;;;;;;;6.31;100.00;101270.75;4801030;29;20038;-77
2022/11/10 07:41:19;;;;;;;14.18;6.53;;;;;;;6.30;100.00;101280.94;4813478;29;20091;-77
2022/11/10 07:43:44;;;;;;;14.95;7.22;;;;;;;6.33;100.00;101285.97;4812501;29;20049;-77
2022/11/10 07:46:10;;;;;;;13.23;6.50;;;;;;;6.40;100.00;101300.44;4825470;29;20041;-77
2022/11/10 07:48:35;;;;;;;13.55;6.70;;;;;;;6.41;100.00;101312.34;4829739;29;20086;-76
2022/11/10 07:51:01;;;;;;;12.07;6.75;;;;;;;6.42;100.00;101314.00;4813804;29;20389;-77
2022/11/10 07:53:27;;;;;;;12.15;6.45;;;;;;;6.47;100.00;101319.63;4811429;29;20042;-77
2022/11/10 07:55:53;;;;;;;10.90;6.63;;;;;;;6.52;100.00;101316.97;4827102;29;20577;-77
2022/11/10 07:58:19;;;;;;;13.90;7.32;;;;;;;6.54;100.00;101328.56;4811741;29;20030;-76
2022/11/10 08:00:45;;;;;;;12.88;6.70;;;;;;;6.61;100.00;101334.78;4813288;29;20466;-77
2022/11/10 08:03:15;;;;;;;12.43;7.07;;;;;;;6.66;100.00;101334.06;4821219;29;20054;-76
2022/11/10 08:05:41;;;;;;;11.02;6.40;;;;;;;6.74;100.00;101335.56;4796674;29;20042;-77
2022/11/10 08:08:06;;;;;;;12.55;7.30;;;;;;;6.81;100.00;101339.84;4778240;29;20035;-76
2022/11/10 08:10:33;;;;;;;14.80;7.00;;;;;;;6.91;100.00;101347.47;4795916;29;20038;-76
2022/11/10 08:12:59;;;;;;;17.73;6.57;;;;;;;6.97;100.00;101346.47;4796435;29;20034;-76
2022/11/10 08:15:25;;;;;;;15.20;6.20;;;;;;;7.06;100.00;101344.97;4804856;29;20031;-76
2022/11/10 08:17:51;;;;;;;14.95;7.18;;;;;;;7.16;100.00;101356.19;4789254;29;20035;-77
2022/11/10 08:20:17;;;;;;;12.70;6.50;;;;;;;7.25;100.00;101359.38;4791509;29;20034;-76
2022/11/10 08:22:43;;;;;;;14.48;6.32;;;;;;;7.35;100.00;101356.78;4781415;29;20109;-76
2022/11/10 08:25:08;;;;;;;13.52;6.35;;;;;;;7.45;100.00;101358.84;4790026;29;20121;-77
2022/11/10 08:27:34;;;;;;;10.70;5.88;;;;;;;7.57;100.00;101354.06;4781156;29;20084;-76
2022/11/10 08:29:59;;;;;;;14.15;6.88;;;;;;;7.68;100.00;101357.81;4770295;29;20500;-77
2022/11/10 08:32:24;;;;;;;11.35;5.97;;;;;;;7.77;100.00;101356.31;4826032;29;20041;-77
2022/11/10 08:34:51;;;;;;;15.95;6.53;;;;;;;7.88;100.00;101354.50;4784356;29;20038;-77
2022/11/10 08:37:16;;;;;;;17.05;6.15;;;;;;;8.00;100.00;101359.94;4827457;29;20038;-76
2022/11/10 08:39:42;;;;;;;16.00;6.32;;;;;;;8.12;100.00;101366.16;4827363;29;20484;-77
2022/11/10 08:42:07;;;;;;;14.45;6.85;;;;;;;8.24;100.00;101363.28;4808571;29;20091;-77
2022/11/10 08:44:32;;;;;;;14.70;6.55;;;;;;;8.38;100.00;101366.47;4807064;29;20045;-76
2022/11/10 08:46:58;;;;;;;18.20;6.45;;;;;;;8.49;100.00;101357.22;4810881;29;20042;-76
2022/11/10 08:49:23;;;;;;;15.95;5.97;;;;;;;8.60;100.00;101359.00;4795545;29;20057;-76
2022/11/10 08:51:49;;;;;;;14.70;6.50;;;;;;;8.71;100.00;101360.78;4827202;29;20046;-76
2022/11/10 08:54:15;;;;;;;16.55;6.78;;;;;;;8.83;100.00;101365.34;4795709;29;20435;-76
2022/11/10 08:56:40;;;;;;;10.98;5.70;;;;;;;8.92;100.00;101358.25;4810771;29;20099;-76
2022/11/10 08:59:06;;;;;;;16.50;7.10;;;;;;;9.07;100.00;101357.56;4810371;29;20038;-76
2022/11/10 09:01:31;;;;;;;15.70;6.07;;;;;;;9.18;100.00;101364.84;4795803;29;20399;-76
2022/11/10 09:03:57;;;;;;;19.80;6.65;;;;;;;9.29;100.00;101371.31;4826608;29;20031;-76
2022/11/10 09:06:22;;;;;;;12.55;5.80;;;;;;;9.40;100.00;101367.53;4810318;29;20041;-76
2022/11/10 09:08:48;;;;;;;17.30;5.90;;;;;;;9.51;100.00;101369.28;4809901;29;20036;-76
2022/11/10 09:11:13;;;;;;;13.77;5.80;;;;;;;9.62;100.00;101371.03;4810631;29;20484;-76
2022/11/10 09:13:39;;;;;;;12.02;4.90;;;;;;;9.75;100.00;101371.66;4765487;29;20030;-76
2022/11/10 09:16:04;;;;;;;15.57;6.30;;;;;;;9.87;100.00;101375.06;4810497;29;20046;-76
2022/11/10 09:18:30;;;;;;;18.23;6.60;;;;;;;9.97;100.00;101375.13;4798424;29;20553;-76
2022/11/10 09:20:55;;;;;;;16.13;6.60;;;;;;;10.09;100.00;101379.63;4795575;29;20030;-76
2022/11/10 09:23:23;;;;;;;12.40;5.38;;;;;;;10.20;100.00;101381.34;4795296;29;20038;-76
2022/11/10 09:25:50;;;;;;;14.27;5.88;;;;;;;10.33;100.00;101385.59;4796146;29;20054;-77
2022/11/10 09:28:16;;;;;;;14.88;5.72;;;;;;;10.43;100.00;101386.47;4795123;29;20080;-76
2022/11/10 09:30:42;;;;;;;15.73;4.82;;;;;;;10.56;100.00;101392.63;4795118;29;20043;-77
2022/11/10 09:33:07;;;;;;;15.15;4.70;;;;;;;10.66;100.00;101390.72;4810161;29;20053;-76
2022/11/10 09:35:33;;;;;;;16.23;5.35;;;;;;;10.79;100.00;101392.16;4801335;29;20594;-77
2022/11/10 09:37:58;;;;;;;12.50;4.78;;;;;;;10.91;100.00;101391.88;4795050;29;20079;-77
2022/11/10 09:40:28;;;;;;;12.35;4.65;;;;;;;11.02;100.00;101403.88;4791997;29;20062;-76
2022/11/10 09:42:55;;;;;;;13.57;4.57;;;;;;;11.14;100.00;101408.06;4809943;29;20034;-77
2022/11/10 09:45:20;;;;;;;13.82;3.95;;;;;;;11.24;100.00;101404.44;4795296;29;20039;-77
2022/11/10 09:48:18;;;;;;;13.30;4.35;;;;;;;11.38;100.00;101411.13;4807175;29;20045;-77
2022/11/10 09:50:54;;;;;;;16.90;4.35;;;;;;;11.52;100.00;101396.66;4817270;29;20054;-77
2022/11/10 09:53:55;;;;;;;18.90;5.55;;;;;;;11.66;100.00;101402.50;4798506;29;20041;-77
2022/11/10 09:56:25;;;;;;;14.27;4.72;;;;;;;11.72;100.00;101395.81;4826453;29;20044;-76
2022/11/10 09:58:50;;;;;;;14.60;3.88;;;;;;;11.84;100.00;101404.72;4813187;29;20109;-77
2022/11/10 10:01:28;;;;;;;12.43;3.95;;;;;;;11.95;100.00;101413.91;4797465;29;20046;-77
2022/11/10 10:04:27;;;;;;;16.95;4.55;;;;;;;12.07;100.00;101420.00;4810769;29;20026;-77
2022/11/10 10:07:12;;;;;;;12.13;3.78;;;;;;;12.21;100.00;101432.22;4840616;29;20050;-77
2022/11/10 10:10:01;;;;;;;15.70;3.97;;;;;;;12.35;100.00;101428.84;4823585;29;20044;-77
2022/11/10 10:12:45;;;;;;;16.58;4.00;;;;;;;12.44;100.00;101429.91;4812839;29;20380;-77
2022/11/10 10:15:36;;;;;;;11.80;3.78;;;;;;;12.51;100.00;101441.59;4844019;29;20563;-77
2022/11/10 10:18:11;;;;;;;15.15;3.60;;;;;;;12.63;100.00;101444.88;4820858;29;20089;-77
2022/11/10 10:20:56;;;;;;;11.32;3.75;;;;;;;12.74;100.00;101446.50;4829456;29;20063;-78
2022/11/10 10:23:36;;;;;;;13.00;3.60;;;;;;;12.86;100.00;101442.56;4828639;29;20041;-77
2022/11/10 10:26:02;;;;;;;14.68;3.60;;;;;;;12.91;100.00;101440.56;4833196;29;20033;-77
2022/11/10 10:28:29;;;;;;;14.52;3.35;;;;;;;13.01;100.00;101434.13;4823996;29;20488;-79
2022/11/10 10:30:58;;;;;;;15.13;3.65;;;;;;;13.09;100.00;101430.72;4831037;29;20101;-77
2022/11/10 10:33:24;;;;;;;15.88;3.35;;;;;;;13.18;100.00;101422.56;4796367;29;20113;-77
2022/11/10 10:35:49;;;;;;;15.50;3.33;;;;;;;13.24;100.00;101421.41;4807061;29;20071;-77
2022/11/10 10:38:30;;;;;;;11.95;2.97;;;;;;;13.35;100.00;101427.78;4831027;29;20030;-77
2022/11/10 10:40:57;;;;;;;16.17;3.10;;;;;;;13.45;100.00;101430.47;4816391;29;20034;-77
2022/11/10 10:43:23;;;;;;;14.63;3.70;;;;;;;13.52;100.00;101432.94;4815881;29;20034;-77
2022/11/10 10:46:15;;;;;;;13.23;2.90;;;;;;;13.63;100.00;101429.78;4827883;29;20068;-76
2022/11/10 10:48:40;;;;;;;12.63;3.53;;;;;;;13.71;100.00;101421.91;4834482;29;20149;-76
2022/11/10 10:51:06;;;;;;;11.40;2.60;;;;;;;13.77;100.00;101426.31;4785534;29;20050;-76
2022/11/10 10:53:32;;;;;;;12.35;3.22;;;;;;;13.86;100.00;101428.16;4847365;29;20126;-76
2022/11/10 10:56:12;;;;;;;6.78;2.50;;;;;;;13.88;100.00;101422.31;4830562;29;20041;-77
2022/11/10 10:58:54;;;;;;;10.90;2.38;;;;;;;14.01;100.00;101424.41;4815184;29;20094;-77
2022/11/10 11:01:29;;;;;;;12.80;2.92;;;;;;;14.09;100.00;101426.53;4835302;29;20120;-77
2022/11/10 11:03:55;;;;;;;12.15;2.65;;;;;;;14.21;100.00;101423.34;4830554;29;20094;-77
2022/11/10 11:06:26;;;;;;;15.23;2.38;;;;;;;14.29;100.00;101430.22;4815092;29;20042;-77
2022/11/10 11:08:59;;;;;;;10.02;2.33;;;;;;;14.35;100.00;101433.78;4814045;29;20510;-77
2022/11/10 11:11:26;;;;;;;10.80;2.60;;;;;;;14.40;100.00;101426.22;4811995;29;20109;-77
2022/11/10 11:13:52;;;;;;;12.98;2.97;;;;;;;14.40;100.00;101434.59;4837675;29;20041;-77
2022/11/10 11:16:18;;;;;;;10.18;2.60;;;;;;;14.46;100.00;101440.97;4798752;29;20442;-77
2022/11/10 11:18:43;;;;;;;8.02;2.25;;;;;;;14.50;100.00;101442.00;4844138;29;20034;-77
2022/11/10 11:21:27;;;;;;;13.57;2.63;;;;;;;14.57;100.00;101447.25;4815051;29;20045;-77
2022/11/10 11:24:11;;;;;;;13.88;2.30;;;;;;;14.66;100.00;101445.50;4800115;29;20050;-77
2022/11/10 11:26:59;;;;;;;10.60;2.28;;;;;;;14.73;100.00;101440.34;4849892;29;20041;-77
2022/11/10 11:29:31;;;;;;;12.27;2.05;;;;;;;14.79;100.00;101433.56;4836431;29;20057;-76
2022/11/10 11:32:06;;;;;;;9.97;2.00;;;;;;;14.85;100.00;101439.91;4813886;29;20113;-77
2022/11/10 11:34:53;;;;;;;9.80;1.95;;;;;;;14.90;100.00;101437.88;4844610;29;20303;-77